sensor_id;sensor_type;location;lat;lon;timestamp;pressure;altitude;pressure_sealevel;temperature;humidity
31595;BME280;18200;48.726;8.892;2023-02-12T00:02:03;98635.66;;;16.39;37.88
31595;BME280;18200;48.726;8.892;2023-02-12T00:06:04;98635.72;;;17.33;36.28
31595;BME280;18200;48.726;8.892;2023-02-12T00:10:06;98642.31;;;17.16;36.57
31595;BME280;18200;48.726;8.892;2023-02-12T00:14:06;98638.25;;;17.10;36.42
31595;BME280;18200;48.726;8.892;2023-02-12T00:18:07;98648.31;;;17.41;36.01
31595;BME280;18200;48.726;8.892;2023-02-12T00:22:07;98643.44;;;17.31;36.09
31595;BME280;18200;48.726;8.892;2023-02-12T00:26:18;98647.88;;;17.39;35.93
31595;BME280;18200;48.726;8.892;2023-02-12T00:30:22;98647.97;;;17.58;35.25
31595;BME280;18200;48.726;8.892;2023-02-12T00:34:22;98651.41;;;17.24;36.57
31595;BME280;18200;48.726;8.892;2023-02-12T00:38:23;98662.78;;;17.45;36.21
31595;BME280;18200;48.726;8.892;2023-02-12T00:42:23;98655.78;;;17.28;36.16
31595;BME280;18200;48.726;8.892;2023-02-12T00:46:24;98657.63;;;17.08;36.84
31595;BME280;18200;48.726;8.892;2023-02-12T00:50:24;98664.13;;;16.88;36.67
31595;BME280;18200;48.726;8.892;2023-02-12T00:54:24;98671.06;;;16.03;38.93
31595;BME280;18200;48.726;8.892;2023-02-12T00:58:25;98677.63;;;17.00;36.89
31595;BME280;18200;48.726;8.892;2023-02-12T01:02:25;98669.25;;;17.40;36.57
31595;BME280;18200;48.726;8.892;2023-02-12T01:06:25;98684.72;;;17.52;36.09
31595;BME280;18200;48.726;8.892;2023-02-12T01:10:26;98678.41;;;17.32;36.56
31595;BME280;18200;48.726;8.892;2023-02-12T01:14:27;98676.56;;;16.89;37.08
31595;BME280;18200;48.726;8.892;2023-02-12T01:18:27;98671.53;;;17.38;36.74
31595;BME280;18200;48.726;8.892;2023-02-12T01:22:27;98666.66;;;17.44;36.12
31595;BME280;18200;48.726;8.892;2023-02-12T01:26:29;98667.16;;;17.49;36.68
31595;BME280;18200;48.726;8.892;2023-02-12T01:30:30;98670.97;;;17.14;36.97
31595;BME280;18200;48.726;8.892;2023-02-12T01:34:30;98681.44;;;16.99;37.48
31595;BME280;18200;48.726;8.892;2023-02-12T01:38:31;98667.50;;;16.42;37.56
31595;BME280;18200;48.726;8.892;2023-02-12T01:42:32;98671.78;;;16.55;37.72
31595;BME280;18200;48.726;8.892;2023-02-12T01:46:35;98668.03;;;16.60;37.59
31595;BME280;18200;48.726;8.892;2023-02-12T01:50:35;98666.22;;;17.76;36.00
31595;BME280;18200;48.726;8.892;2023-02-12T01:54:36;98667.88;;;17.81;35.34
31595;BME280;18200;48.726;8.892;2023-02-12T01:58:38;98662.34;;;16.80;37.41
31595;BME280;18200;48.726;8.892;2023-02-12T02:02:48;98667.97;;;17.19;37.13
31595;BME280;18200;48.726;8.892;2023-02-12T02:07:01;98662.16;;;17.36;36.53
31595;BME280;18200;48.726;8.892;2023-02-12T02:11:02;98662.13;;;17.01;36.90
31595;BME280;18200;48.726;8.892;2023-02-12T02:15:24;98659.44;;;16.30;38.62
31595;BME280;18200;48.726;8.892;2023-02-12T02:24:25;98656.47;;;17.41;36.58
31595;BME280;18200;48.726;8.892;2023-02-12T02:33:14;98647.13;;;17.23;36.43
31595;BME280;18200;48.726;8.892;2023-02-12T02:37:44;98642.56;;;17.27;36.73
31595;BME280;18200;48.726;8.892;2023-02-12T02:41:52;98642.72;;;17.34;36.49
31595;BME280;18200;48.726;8.892;2023-02-12T02:46:01;98650.22;;;17.05;37.06
31595;BME280;18200;48.726;8.892;2023-02-12T02:50:08;98641.78;;;16.36;38.16
31595;BME280;18200;48.726;8.892;2023-02-12T02:54:20;98630.44;;;16.18;38.87
31595;BME280;18200;48.726;8.892;2023-02-12T02:58:31;98640.38;;;15.87;38.59
31595;BME280;18200;48.726;8.892;2023-02-12T03:02:37;98638.13;;;16.16;38.99
31595;BME280;18200;48.726;8.892;2023-02-12T03:06:44;98627.88;;;16.10;38.82
31595;BME280;18200;48.726;8.892;2023-02-12T03:10:50;98625.59;;;17.14;37.03
31595;BME280;18200;48.726;8.892;2023-02-12T03:15:10;98637.81;;;17.24;36.81
31595;BME280;18200;48.726;8.892;2023-02-12T03:19:21;98636.41;;;17.30;36.46
31595;BME280;18200;48.726;8.892;2023-02-12T03:23:30;98633.38;;;15.86;38.75
31595;BME280;18200;48.726;8.892;2023-02-12T03:27:36;98637.75;;;16.73;38.03
31595;BME280;18200;48.726;8.892;2023-02-12T03:35:49;98637.13;;;16.64;38.54
31595;BME280;18200;48.726;8.892;2023-02-12T03:40:31;98637.47;;;16.78;37.09
31595;BME280;18200;48.726;8.892;2023-02-12T03:49:05;98641.53;;;17.66;35.81
31595;BME280;18200;48.726;8.892;2023-02-12T03:53:06;98644.59;;;16.98;37.14
31595;BME280;18200;48.726;8.892;2023-02-12T03:57:09;98644.59;;;16.67;37.36
31595;BME280;18200;48.726;8.892;2023-02-12T04:01:11;98642.56;;;16.95;37.36
31595;BME280;18200;48.726;8.892;2023-02-12T04:05:18;98638.88;;;17.35;37.06
31595;BME280;18200;48.726;8.892;2023-02-12T04:09:20;98647.19;;;17.42;35.98
31595;BME280;18200;48.726;8.892;2023-02-12T04:22:22;98646.63;;;16.15;38.39
31595;BME280;18200;48.726;8.892;2023-02-12T04:26:38;98655.88;;;17.32;36.24
31595;BME280;18200;48.726;8.892;2023-02-12T04:30:58;98658.66;;;17.51;35.84
31595;BME280;18200;48.726;8.892;2023-02-12T04:35:19;98664.88;;;17.36;36.18
31595;BME280;18200;48.726;8.892;2023-02-12T04:39:24;98661.84;;;17.06;36.42
31595;BME280;18200;48.726;8.892;2023-02-12T04:43:30;98663.94;;;17.13;36.41
31595;BME280;18200;48.726;8.892;2023-02-12T04:47:31;98669.28;;;17.09;36.96
31595;BME280;18200;48.726;8.892;2023-02-12T04:51:31;98675.47;;;16.78;36.76
31595;BME280;18200;48.726;8.892;2023-02-12T04:55:32;98674.63;;;17.37;36.40
31595;BME280;18200;48.726;8.892;2023-02-12T04:59:32;98672.44;;;17.11;36.83
31595;BME280;18200;48.726;8.892;2023-02-12T05:03:32;98669.19;;;16.47;37.87
31595;BME280;18200;48.726;8.892;2023-02-12T05:07:33;98666.84;;;16.88;37.20
31595;BME280;18200;48.726;8.892;2023-02-12T05:11:33;98668.84;;;16.91;37.55
31595;BME280;18200;48.726;8.892;2023-02-12T05:15:33;98666.75;;;17.00;37.05
31595;BME280;18200;48.726;8.892;2023-02-12T05:19:34;98671.25;;;16.65;37.27
31595;BME280;18200;48.726;8.892;2023-02-12T05:23:36;98669.38;;;16.81;37.94
31595;BME280;18200;48.726;8.892;2023-02-12T05:27:36;98673.84;;;17.05;37.31
31595;BME280;18200;48.726;8.892;2023-02-12T05:31:37;98668.25;;;16.98;37.18
31595;BME280;18200;48.726;8.892;2023-02-12T05:35:37;98673.78;;;15.91;38.82
31595;BME280;18200;48.726;8.892;2023-02-12T05:39:37;98673.06;;;17.04;37.18
31595;BME280;18200;48.726;8.892;2023-02-12T05:43:38;98670.50;;;17.27;36.83
31595;BME280;18200;48.726;8.892;2023-02-12T05:47:38;98680.06;;;17.37;36.24
31595;BME280;18200;48.726;8.892;2023-02-12T05:51:38;98672.94;;;16.54;38.56
31595;BME280;18200;48.726;8.892;2023-02-12T05:55:39;98676.38;;;16.27;39.12
31595;BME280;18200;48.726;8.892;2023-02-12T05:59:39;98674.75;;;16.50;38.69
31595;BME280;18200;48.726;8.892;2023-02-12T06:03:40;98675.50;;;16.23;39.13
31595;BME280;18200;48.726;8.892;2023-02-12T06:07:41;98668.53;;;16.10;39.90
31595;BME280;18200;48.726;8.892;2023-02-12T06:11:42;98666.16;;;17.07;38.41
31595;BME280;18200;48.726;8.892;2023-02-12T06:15:42;98661.84;;;16.90;38.09
31595;BME280;18200;48.726;8.892;2023-02-12T06:19:42;98670.97;;;17.14;38.13
31595;BME280;18200;48.726;8.892;2023-02-12T06:23:43;98671.28;;;17.28;38.30
31595;BME280;18200;48.726;8.892;2023-02-12T06:27:44;98670.69;;;17.34;38.37
31595;BME280;18200;48.726;8.892;2023-02-12T06:31:44;98662.88;;;17.33;37.70
31595;BME280;18200;48.726;8.892;2023-02-12T06:35:45;98679.38;;;17.40;38.10
31595;BME280;18200;48.726;8.892;2023-02-12T06:39:45;98670.09;;;17.10;38.15
31595;BME280;18200;48.726;8.892;2023-02-12T06:43:46;98685.47;;;16.74;38.59
31595;BME280;18200;48.726;8.892;2023-02-12T06:47:46;98683.91;;;16.73;39.03
31595;BME280;18200;48.726;8.892;2023-02-12T06:51:47;98684.59;;;16.70;38.65
31595;BME280;18200;48.726;8.892;2023-02-12T06:55:47;98683.56;;;16.90;38.98
31595;BME280;18200;48.726;8.892;2023-02-12T06:59:48;98685.31;;;16.98;38.79
31595;BME280;18200;48.726;8.892;2023-02-12T07:03:54;98696.53;;;17.13;38.60
31595;BME280;18200;48.726;8.892;2023-02-12T07:07:55;98693.38;;;17.42;38.28
31595;BME280;18200;48.726;8.892;2023-02-12T07:11:59;98700.06;;;17.29;38.34
31595;BME280;18200;48.726;8.892;2023-02-12T07:16:11;98703.00;;;17.55;38.34
31595;BME280;18200;48.726;8.892;2023-02-12T07:20:12;98698.78;;;16.79;38.72
31595;BME280;18200;48.726;8.892;2023-02-12T07:24:13;98706.78;;;15.81;41.21
31595;BME280;18200;48.726;8.892;2023-02-12T07:28:14;98709.81;;;15.91;40.83
31595;BME280;18200;48.726;8.892;2023-02-12T07:32:14;98699.69;;;16.28;39.91
31595;BME280;18200;48.726;8.892;2023-02-12T07:36:17;98704.88;;;16.21;40.50
31595;BME280;18200;48.726;8.892;2023-02-12T07:40:18;98709.72;;;15.88;41.28
31595;BME280;18200;48.726;8.892;2023-02-12T07:44:18;98706.22;;;16.27;40.51
31595;BME280;18200;48.726;8.892;2023-02-12T07:48:18;98714.84;;;16.17;40.59
31595;BME280;18200;48.726;8.892;2023-02-12T07:52:19;98721.25;;;15.73;41.60
31595;BME280;18200;48.726;8.892;2023-02-12T07:56:21;98717.16;;;15.91;40.89
31595;BME280;18200;48.726;8.892;2023-02-12T08:00:22;98707.97;;;15.43;41.81
31595;BME280;18200;48.726;8.892;2023-02-12T08:04:24;98711.53;;;15.72;41.36
31595;BME280;18200;48.726;8.892;2023-02-12T08:08:24;98702.81;;;16.30;40.26
31595;BME280;18200;48.726;8.892;2023-02-12T08:12:25;98696.03;;;16.36;40.71
31595;BME280;18200;48.726;8.892;2023-02-12T08:16:26;98699.47;;;16.21;41.25
31595;BME280;18200;48.726;8.892;2023-02-12T08:20:27;98696.31;;;16.74;39.95
31595;BME280;18200;48.726;8.892;2023-02-12T08:24:28;98694.09;;;16.37;40.51
31595;BME280;18200;48.726;8.892;2023-02-12T08:28:29;98690.50;;;16.05;42.51
31595;BME280;18200;48.726;8.892;2023-02-12T08:32:29;98694.56;;;15.99;41.91
31595;BME280;18200;48.726;8.892;2023-02-12T08:36:38;98694.75;;;16.18;42.76
31595;BME280;18200;48.726;8.892;2023-02-12T08:40:39;98687.06;;;16.48;41.76
31595;BME280;18200;48.726;8.892;2023-02-12T08:44:41;98696.19;;;16.55;41.63
31595;BME280;18200;48.726;8.892;2023-02-12T08:48:42;98695.94;;;17.03;41.19
31595;BME280;18200;48.726;8.892;2023-02-12T08:52:43;98698.50;;;16.41;42.24
31595;BME280;18200;48.726;8.892;2023-02-12T08:56:43;98696.44;;;17.09;41.99
31595;BME280;18200;48.726;8.892;2023-02-12T09:00:44;98701.59;;;17.30;40.59
31595;BME280;18200;48.726;8.892;2023-02-12T09:04:44;98707.94;;;17.65;39.80
31595;BME280;18200;48.726;8.892;2023-02-12T09:08:45;98700.28;;;17.70;40.30
31595;BME280;18200;48.726;8.892;2023-02-12T09:12:45;98699.78;;;17.65;39.71
31595;BME280;18200;48.726;8.892;2023-02-12T09:16:47;98706.78;;;17.66;39.72
31595;BME280;18200;48.726;8.892;2023-02-12T09:20:47;98707.59;;;17.51;39.63
31595;BME280;18200;48.726;8.892;2023-02-12T09:24:48;98696.09;;;17.92;40.27
31595;BME280;18200;48.726;8.892;2023-02-12T09:28:49;98711.09;;;17.67;40.33
31595;BME280;18200;48.726;8.892;2023-02-12T09:32:49;98710.31;;;18.39;39.09
31595;BME280;18200;48.726;8.892;2023-02-12T09:36:49;98717.22;;;18.72;37.85
31595;BME280;18200;48.726;8.892;2023-02-12T09:45:18;98706.38;;;18.75;37.89
31595;BME280;18200;48.726;8.892;2023-02-12T09:49:25;98716.81;;;18.50;38.03
31595;BME280;18200;48.726;8.892;2023-02-12T09:53:34;98713.75;;;18.75;37.61
31595;BME280;18200;48.726;8.892;2023-02-12T09:57:36;98713.59;;;19.32;36.41
31595;BME280;18200;48.726;8.892;2023-02-12T10:01:37;98714.41;;;19.81;35.59
31595;BME280;18200;48.726;8.892;2023-02-12T10:05:40;98707.28;;;19.73;35.65
31595;BME280;18200;48.726;8.892;2023-02-12T10:18:59;98705.53;;;20.18;33.78
31595;BME280;18200;48.726;8.892;2023-02-12T10:23:30;98698.34;;;19.50;35.06
31595;BME280;18200;48.726;8.892;2023-02-12T10:27:42;98700.22;;;19.23;35.59
31595;BME280;18200;48.726;8.892;2023-02-12T10:31:50;98698.81;;;18.46;37.05
31595;BME280;18200;48.726;8.892;2023-02-12T10:35:58;98693.50;;;19.40;35.91
31595;BME280;18200;48.726;8.892;2023-02-12T10:40:05;98702.59;;;19.25;36.31
31595;BME280;18200;48.726;8.892;2023-02-12T10:44:13;98695.47;;;18.75;36.68
31595;BME280;18200;48.726;8.892;2023-02-12T10:48:29;98694.59;;;19.13;36.05
31595;BME280;18200;48.726;8.892;2023-02-12T10:52:42;98693.31;;;19.52;35.45
31595;BME280;18200;48.726;8.892;2023-02-12T10:56:44;98692.56;;;20.07;34.47
31595;BME280;18200;48.726;8.892;2023-02-12T11:00:45;98687.91;;;19.82;35.86
31595;BME280;18200;48.726;8.892;2023-02-12T11:04:45;98687.41;;;19.01;36.38
31595;BME280;18200;48.726;8.892;2023-02-12T11:08:46;98682.72;;;19.02;35.94
31595;BME280;18200;48.726;8.892;2023-02-12T11:12:47;98678.41;;;19.98;34.72
31595;BME280;18200;48.726;8.892;2023-02-12T11:16:56;98676.41;;;20.55;33.58
31595;BME280;18200;48.726;8.892;2023-02-12T11:25:14;98674.09;;;21.41;33.03
31595;BME280;18200;48.726;8.892;2023-02-12T11:29:18;98665.72;;;21.74;32.47
31595;BME280;18200;48.726;8.892;2023-02-12T11:33:26;98658.50;;;20.61;33.82
31595;BME280;18200;48.726;8.892;2023-02-12T11:37:27;98663.38;;;20.45;34.48
31595;BME280;18200;48.726;8.892;2023-02-12T11:41:36;98659.41;;;20.72;33.59
31595;BME280;18200;48.726;8.892;2023-02-12T11:45:42;98660.06;;;20.62;33.77
31595;BME280;18200;48.726;8.892;2023-02-12T11:50:35;98657.28;;;20.22;34.54
31595;BME280;18200;48.726;8.892;2023-02-12T11:54:18;98662.25;;;20.46;34.43
31595;BME280;18200;48.726;8.892;2023-02-12T11:58:22;98665.47;;;20.55;34.04
31595;BME280;18200;48.726;8.892;2023-02-12T12:02:33;98657.69;;;20.57;34.26
31595;BME280;18200;48.726;8.892;2023-02-12T12:07:01;98659.13;;;20.84;34.19
31595;BME280;18200;48.726;8.892;2023-02-12T12:11:12;98651.53;;;20.63;33.85
31595;BME280;18200;48.726;8.892;2023-02-12T12:15:21;98652.59;;;20.96;33.65
31595;BME280;18200;48.726;8.892;2023-02-12T12:19:58;98645.44;;;21.24;33.44
31595;BME280;18200;48.726;8.892;2023-02-12T12:24:08;98650.44;;;20.38;34.19
31595;BME280;18200;48.726;8.892;2023-02-12T12:28:39;98646.63;;;20.83;34.12
31595;BME280;18200;48.726;8.892;2023-02-12T12:32:42;98639.91;;;21.75;33.23
31595;BME280;18200;48.726;8.892;2023-02-12T12:41:00;98634.78;;;22.42;31.83
31595;BME280;18200;48.726;8.892;2023-02-12T13:10:59;98602.75;;;22.67;31.47
31595;BME280;18200;48.726;8.892;2023-02-12T13:20:16;98603.28;;;21.87;32.60
31595;BME280;18200;48.726;8.892;2023-02-12T13:24:12;98598.84;;;23.21;30.25
31595;BME280;18200;48.726;8.892;2023-02-12T13:28:29;98587.06;;;23.28;30.20
31595;BME280;18200;48.726;8.892;2023-02-12T13:32:35;98595.66;;;23.65;30.38
31595;BME280;18200;48.726;8.892;2023-02-12T13:36:37;98591.75;;;22.64;31.50
31595;BME280;18200;48.726;8.892;2023-02-12T13:40:39;98585.50;;;23.48;30.32
31595;BME280;18200;48.726;8.892;2023-02-12T13:53:23;98578.09;;;24.35;28.61
31595;BME280;18200;48.726;8.892;2023-02-12T13:57:25;98570.28;;;24.33;29.46
31595;BME280;18200;48.726;8.892;2023-02-12T14:01:43;98575.19;;;25.11;28.23
31595;BME280;18200;48.726;8.892;2023-02-12T14:05:45;98578.28;;;25.20;27.55
31595;BME280;18200;48.726;8.892;2023-02-12T14:13:55;98567.59;;;24.85;29.19
31595;BME280;18200;48.726;8.892;2023-02-12T14:18:06;98558.38;;;24.50;29.30
31595;BME280;18200;48.726;8.892;2023-02-12T14:26:36;98551.16;;;25.59;28.01
31595;BME280;18200;48.726;8.892;2023-02-12T14:30:37;98548.25;;;24.37;28.97
31595;BME280;18200;48.726;8.892;2023-02-12T14:34:38;98539.75;;;25.20;28.18
31595;BME280;18200;48.726;8.892;2023-02-12T14:47:01;98549.59;;;24.77;28.15
31595;BME280;18200;48.726;8.892;2023-02-12T14:51:04;98545.09;;;24.97;28.11
31595;BME280;18200;48.726;8.892;2023-02-12T14:55:21;98549.31;;;26.13;26.40
31595;BME280;18200;48.726;8.892;2023-02-12T14:59:24;98544.63;;;26.90;26.30
31595;BME280;18200;48.726;8.892;2023-02-12T15:03:42;98545.97;;;24.32;28.33
31595;BME280;18200;48.726;8.892;2023-02-12T15:07:50;98551.97;;;26.24;26.90
31595;BME280;18200;48.726;8.892;2023-02-12T15:13:00;98542.56;;;26.17;26.39
31595;BME280;18200;48.726;8.892;2023-02-12T15:16:39;98538.59;;;26.72;26.29
31595;BME280;18200;48.726;8.892;2023-02-12T15:20:49;98542.78;;;26.57;27.13
31595;BME280;18200;48.726;8.892;2023-02-12T15:24:51;98546.91;;;27.41;24.84
31595;BME280;18200;48.726;8.892;2023-02-12T15:28:52;98544.44;;;25.64;27.29
31595;BME280;18200;48.726;8.892;2023-02-12T15:32:55;98534.31;;;27.40;25.24
31595;BME280;18200;48.726;8.892;2023-02-12T15:36:59;98537.44;;;25.89;27.13
31595;BME280;18200;48.726;8.892;2023-02-12T15:41:01;98538.09;;;26.54;25.55
31595;BME280;18200;48.726;8.892;2023-02-12T15:49:19;98526.78;;;24.80;28.83
31595;BME280;18200;48.726;8.892;2023-02-12T15:53:22;98535.72;;;23.46;30.27
31595;BME280;18200;48.726;8.892;2023-02-12T15:57:24;98531.38;;;23.55;30.87
31595;BME280;18200;48.726;8.892;2023-02-12T16:01:33;98531.91;;;24.16;29.23
31595;BME280;18200;48.726;8.892;2023-02-12T16:05:34;98532.06;;;23.77;30.07
31595;BME280;18200;48.726;8.892;2023-02-12T16:09:35;98540.06;;;23.33;30.49
31595;BME280;18200;48.726;8.892;2023-02-12T16:13:36;98532.28;;;22.78;30.95
31595;BME280;18200;48.726;8.892;2023-02-12T16:17:45;98532.53;;;21.96;32.93
31595;BME280;18200;48.726;8.892;2023-02-12T16:21:52;98536.81;;;21.83;33.59
31595;BME280;18200;48.726;8.892;2023-02-12T16:25:54;98535.34;;;22.34;31.54
31595;BME280;18200;48.726;8.892;2023-02-12T16:29:58;98529.88;;;22.45;32.56
31595;BME280;18200;48.726;8.892;2023-02-12T16:33:59;98538.91;;;22.53;31.71
31595;BME280;18200;48.726;8.892;2023-02-12T16:38:45;98536.94;;;22.53;31.38
31595;BME280;18200;48.726;8.892;2023-02-12T16:46:53;98546.34;;;22.52;31.84
31595;BME280;18200;48.726;8.892;2023-02-12T16:50:56;98551.00;;;22.34;31.55
31595;BME280;18200;48.726;8.892;2023-02-12T16:54:57;98556.13;;;20.88;33.28
31595;BME280;18200;48.726;8.892;2023-02-12T16:58:58;98563.19;;;20.49;33.25
31595;BME280;18200;48.726;8.892;2023-02-12T17:02:59;98563.78;;;21.19;33.33
31595;BME280;18200;48.726;8.892;2023-02-12T17:07:00;98571.94;;;20.65;33.53
31595;BME280;18200;48.726;8.892;2023-02-12T17:11:00;98577.03;;;20.30;34.57
31595;BME280;18200;48.726;8.892;2023-02-12T17:15:04;98579.03;;;20.33;33.77
31595;BME280;18200;48.726;8.892;2023-02-12T17:19:04;98583.28;;;19.15;36.00
31595;BME280;18200;48.726;8.892;2023-02-12T17:23:05;98593.03;;;19.39;35.10
31595;BME280;18200;48.726;8.892;2023-02-12T17:27:06;98600.59;;;19.26;35.96
31595;BME280;18200;48.726;8.892;2023-02-12T17:31:08;98600.59;;;19.26;35.66
31595;BME280;18200;48.726;8.892;2023-02-12T17:35:08;98588.28;;;19.09;35.85
31595;BME280;18200;48.726;8.892;2023-02-12T17:39:11;98600.47;;;18.70;35.47
31595;BME280;18200;48.726;8.892;2023-02-12T17:43:12;98604.13;;;18.78;36.06
31595;BME280;18200;48.726;8.892;2023-02-12T17:47:12;98609.31;;;18.64;35.46
31595;BME280;18200;48.726;8.892;2023-02-12T17:51:13;98608.59;;;18.44;35.74
31595;BME280;18200;48.726;8.892;2023-02-12T17:55:13;98607.94;;;18.31;35.25
31595;BME280;18200;48.726;8.892;2023-02-12T17:59:14;98608.84;;;18.20;35.86
31595;BME280;18200;48.726;8.892;2023-02-12T18:03:14;98603.06;;;18.21;35.78
31595;BME280;18200;48.726;8.892;2023-02-12T18:07:15;98612.44;;;17.66;36.39
31595;BME280;18200;48.726;8.892;2023-02-12T18:11:15;98617.38;;;17.80;36.14
31595;BME280;18200;48.726;8.892;2023-02-12T18:15:18;98608.38;;;17.26;37.10
31595;BME280;18200;48.726;8.892;2023-02-12T18:19:20;98609.69;;;17.32;36.66
31595;BME280;18200;48.726;8.892;2023-02-12T18:23:20;98616.41;;;17.38;36.31
31595;BME280;18200;48.726;8.892;2023-02-12T18:27:21;98612.50;;;17.35;35.72
31595;BME280;18200;48.726;8.892;2023-02-12T18:31:21;98620.50;;;16.81;36.38
31595;BME280;18200;48.726;8.892;2023-02-12T18:35:21;98613.25;;;16.85;36.64
31595;BME280;18200;48.726;8.892;2023-02-12T18:39:22;98612.00;;;15.96;37.33
31595;BME280;18200;48.726;8.892;2023-02-12T18:43:22;98608.56;;;15.84;38.82
31595;BME280;18200;48.726;8.892;2023-02-12T18:47:22;98617.41;;;15.69;39.23
31595;BME280;18200;48.726;8.892;2023-02-12T18:51:26;98614.50;;;16.17;37.94
31595;BME280;18200;48.726;8.892;2023-02-12T18:55:26;98618.81;;;15.90;38.21
31595;BME280;18200;48.726;8.892;2023-02-12T18:59:27;98617.44;;;16.24;37.82
31595;BME280;18200;48.726;8.892;2023-02-12T19:03:27;98617.63;;;16.31;37.05
31595;BME280;18200;48.726;8.892;2023-02-12T19:07:27;98631.66;;;14.93;37.64
31595;BME280;18200;48.726;8.892;2023-02-12T19:11:28;98617.47;;;15.20;39.19
31595;BME280;18200;48.726;8.892;2023-02-12T19:15:29;98614.72;;;15.57;37.11
31595;BME280;18200;48.726;8.892;2023-02-12T19:19:30;98622.16;;;14.75;38.86
31595;BME280;18200;48.726;8.892;2023-02-12T19:23:30;98623.28;;;13.96;40.69
31595;BME280;18200;48.726;8.892;2023-02-12T19:27:31;98624.59;;;13.70;41.28
31595;BME280;18200;48.726;8.892;2023-02-12T19:31:34;98616.72;;;14.51;40.59
31595;BME280;18200;48.726;8.892;2023-02-12T19:35:35;98621.72;;;14.97;39.65
31595;BME280;18200;48.726;8.892;2023-02-12T19:39:35;98624.22;;;15.26;38.88
31595;BME280;18200;48.726;8.892;2023-02-12T19:43:36;98628.72;;;15.10;38.44
31595;BME280;18200;48.726;8.892;2023-02-12T19:47:36;98624.44;;;15.45;37.52
31595;BME280;18200;48.726;8.892;2023-02-12T19:51:37;98635.03;;;15.14;37.44
31595;BME280;18200;48.726;8.892;2023-02-12T19:55:38;98643.81;;;14.99;37.56
31595;BME280;18200;48.726;8.892;2023-02-12T19:59:39;98631.53;;;15.02;37.28
31595;BME280;18200;48.726;8.892;2023-02-12T20:03:40;98637.31;;;15.24;36.98
31595;BME280;18200;48.726;8.892;2023-02-12T20:07:40;98645.31;;;14.97;37.53
31595;BME280;18200;48.726;8.892;2023-02-12T20:11:40;98631.75;;;13.86;38.79
31595;BME280;18200;48.726;8.892;2023-02-12T20:15:41;98638.66;;;14.17;39.50
31595;BME280;18200;48.726;8.892;2023-02-12T20:19:41;98636.16;;;14.32;38.76
31595;BME280;18200;48.726;8.892;2023-02-12T20:23:42;98642.22;;;14.09;37.73
31595;BME280;18200;48.726;8.892;2023-02-12T20:27:43;98634.31;;;14.03;38.53
31595;BME280;18200;48.726;8.892;2023-02-12T20:31:44;98634.06;;;14.50;38.68
31595;BME280;18200;48.726;8.892;2023-02-12T20:35:45;98639.56;;;13.88;37.92
31595;BME280;18200;48.726;8.892;2023-02-12T20:39:45;98632.50;;;13.95;37.92
31595;BME280;18200;48.726;8.892;2023-02-12T20:43:45;98637.75;;;14.13;38.56
31595;BME280;18200;48.726;8.892;2023-02-12T20:47:46;98636.03;;;14.29;38.65
31595;BME280;18200;48.726;8.892;2023-02-12T20:51:48;98635.16;;;14.37;37.54
31595;BME280;18200;48.726;8.892;2023-02-12T20:55:49;98635.53;;;13.94;37.97
31595;BME280;18200;48.726;8.892;2023-02-12T20:59:49;98640.00;;;13.90;38.14
31595;BME280;18200;48.726;8.892;2023-02-12T21:03:52;98646.47;;;13.77;38.01
31595;BME280;18200;48.726;8.892;2023-02-12T21:07:53;98648.72;;;13.75;37.81
31595;BME280;18200;48.726;8.892;2023-02-12T21:11:53;98650.91;;;13.52;38.09
31595;BME280;18200;48.726;8.892;2023-02-12T21:16:08;98646.09;;;13.08;39.23
31595;BME280;18200;48.726;8.892;2023-02-12T21:20:09;98644.97;;;13.38;39.10
31595;BME280;18200;48.726;8.892;2023-02-12T21:24:16;98641.00;;;12.69;39.18
31595;BME280;18200;48.726;8.892;2023-02-12T21:28:17;98639.47;;;13.35;39.55
31595;BME280;18200;48.726;8.892;2023-02-12T21:32:17;98639.72;;;13.42;38.94
31595;BME280;18200;48.726;8.892;2023-02-12T21:36:22;98621.44;;;13.47;38.57
31595;BME280;18200;48.726;8.892;2023-02-12T21:40:23;98631.75;;;13.45;38.51
31595;BME280;18200;48.726;8.892;2023-02-12T21:44:24;98627.38;;;13.03;38.90
31595;BME280;18200;48.726;8.892;2023-02-12T21:48:25;98627.38;;;13.03;39.21
31595;BME280;18200;48.726;8.892;2023-02-12T21:52:25;98620.69;;;13.38;38.48
31595;BME280;18200;48.726;8.892;2023-02-12T21:56:26;98619.59;;;13.39;37.60
31595;BME280;18200;48.726;8.892;2023-02-12T22:00:26;98623.50;;;13.21;38.02
31595;BME280;18200;48.726;8.892;2023-02-12T22:04:27;98626.16;;;12.92;38.76
31595;BME280;18200;48.726;8.892;2023-02-12T22:08:28;98618.06;;;12.92;38.23
31595;BME280;18200;48.726;8.892;2023-02-12T22:12:29;98624.56;;;12.91;38.99
31595;BME280;18200;48.726;8.892;2023-02-12T22:16:31;98628.81;;;12.63;39.74
31595;BME280;18200;48.726;8.892;2023-02-12T22:20:32;98624.03;;;12.68;39.36
31595;BME280;18200;48.726;8.892;2023-02-12T22:24:32;98624.50;;;11.98;41.05
31595;BME280;18200;48.726;8.892;2023-02-12T22:28:32;98624.50;;;11.81;41.10
31595;BME280;18200;48.726;8.892;2023-02-12T22:32:33;98627.97;;;12.24;40.21
31595;BME280;18200;48.726;8.892;2023-02-12T22:36:35;98628.50;;;12.56;39.64
31595;BME280;18200;48.726;8.892;2023-02-12T22:40:36;98626.44;;;12.53;39.54
31595;BME280;18200;48.726;8.892;2023-02-12T22:44:36;98624.16;;;12.08;40.29
31595;BME280;18200;48.726;8.892;2023-02-12T22:48:37;98637.00;;;12.20;40.47
31595;BME280;18200;48.726;8.892;2023-02-12T22:52:38;98628.22;;;12.86;38.75
31595;BME280;18200;48.726;8.892;2023-02-12T22:56:38;98639.09;;;12.61;38.68
31595;BME280;18200;48.726;8.892;2023-02-12T23:00:39;98640.84;;;12.57;38.28
31595;BME280;18200;48.726;8.892;2023-02-12T23:04:39;98636.03;;;12.24;38.84
31595;BME280;18200;48.726;8.892;2023-02-12T23:08:40;98640.97;;;11.71;39.78
31595;BME280;18200;48.726;8.892;2023-02-12T23:12:41;98643.16;;;12.20;39.98
31595;BME280;18200;48.726;8.892;2023-02-12T23:16:41;98646.31;;;12.22;39.98
31595;BME280;18200;48.726;8.892;2023-02-12T23:20:42;98642.97;;;12.42;39.26
31595;BME280;18200;48.726;8.892;2023-02-12T23:24:42;98639.69;;;12.11;38.96